sensor_id;sensor_type;location;lat;lon;timestamp;pressure;altitude;pressure_sealevel;temperature;humidity
7966;BME280;4028;43.272;26.932;2023-02-20T00:00:21;98971.75;;;12.99;86.77
7966;BME280;4028;43.272;26.932;2023-02-20T00:02:48;98972.75;;;12.90;87.91
7966;BME280;4028;43.272;26.932;2023-02-20T00:05:14;98965.75;;;12.89;87.96
7966;BME280;4028;43.272;26.932;2023-02-20T00:07:40;98975.88;;;12.94;87.07
7966;BME280;4028;43.272;26.932;2023-02-20T00:10:06;98974.06;;;12.94;87.03
7966;BME280;4028;43.272;26.932;2023-02-20T00:12:32;98985.34;;;12.80;88.62
7966;BME280;4028;43.272;26.932;2023-02-20T00:14:58;98997.78;;;12.80;88.77
7966;BME280;4028;43.272;26.932;2023-02-20T00:17:23;98982.00;;;12.70;89.41
7966;BME280;4028;43.272;26.932;2023-02-20T00:19:49;98965.72;;;12.73;89.65
7966;BME280;4028;43.272;26.932;2023-02-20T00:22:14;98964.53;;;12.67;90.16
7966;BME280;4028;43.272;26.932;2023-02-20T00:24:40;98942.47;;;12.67;90.41
7966;BME280;4028;43.272;26.932;2023-02-20T00:27:06;98949.94;;;12.63;90.68
7966;BME280;4028;43.272;26.932;2023-02-20T00:29:31;98960.38;;;12.57;91.88
7966;BME280;4028;43.272;26.932;2023-02-20T00:31:57;98957.38;;;12.52;91.86
7966;BME280;4028;43.272;26.932;2023-02-20T00:34:25;98955.34;;;12.45;92.17
7966;BME280;4028;43.272;26.932;2023-02-20T00:36:51;98947.06;;;12.48;92.04
7966;BME280;4028;43.272;26.932;2023-02-20T00:39:17;98951.66;;;12.38;93.31
7966;BME280;4028;43.272;26.932;2023-02-20T00:41:43;98946.53;;;12.37;93.93
7966;BME280;4028;43.272;26.932;2023-02-20T00:44:08;98953.38;;;12.47;92.44
7966;BME280;4028;43.272;26.932;2023-02-20T00:46:34;98959.38;;;12.49;92.42
7966;BME280;4028;43.272;26.932;2023-02-20T00:48:59;98953.22;;;12.49;92.36
7966;BME280;4028;43.272;26.932;2023-02-20T00:51:25;98937.44;;;12.39;93.45
7966;BME280;4028;43.272;26.932;2023-02-20T00:53:51;98954.66;;;12.35;93.90
7966;BME280;4028;43.272;26.932;2023-02-20T00:56:17;98944.69;;;12.29;95.10
7966;BME280;4028;43.272;26.932;2023-02-20T00:58:42;98953.13;;;12.25;95.49
7966;BME280;4028;43.272;26.932;2023-02-20T01:01:08;98953.94;;;12.25;95.86
7966;BME280;4028;43.272;26.932;2023-02-20T01:03:33;98951.94;;;12.19;96.73
7966;BME280;4028;43.272;26.932;2023-02-20T01:05:59;98944.94;;;12.18;97.49
7966;BME280;4028;43.272;26.932;2023-02-20T01:08:24;98947.25;;;12.13;97.82
7966;BME280;4028;43.272;26.932;2023-02-20T01:10:50;98953.00;;;12.00;99.58
7966;BME280;4028;43.272;26.932;2023-02-20T01:13:16;98931.13;;;11.80;100.00
7966;BME280;4028;43.272;26.932;2023-02-20T01:15:42;98967.88;;;11.93;100.00
7966;BME280;4028;43.272;26.932;2023-02-20T01:18:08;98950.28;;;11.92;100.00
7966;BME280;4028;43.272;26.932;2023-02-20T01:20:33;98938.03;;;11.91;100.00
7966;BME280;4028;43.272;26.932;2023-02-20T01:22:59;98942.44;;;11.82;100.00
7966;BME280;4028;43.272;26.932;2023-02-20T01:25:24;98951.25;;;11.83;100.00
7966;BME280;4028;43.272;26.932;2023-02-20T01:27:49;98945.94;;;11.83;100.00
7966;BME280;4028;43.272;26.932;2023-02-20T01:30:15;98928.28;;;11.74;100.00
7966;BME280;4028;43.272;26.932;2023-02-20T01:32:41;98907.19;;;11.64;100.00
7966;BME280;4028;43.272;26.932;2023-02-20T01:35:07;98925.22;;;11.60;100.00
7966;BME280;4028;43.272;26.932;2023-02-20T01:37:32;98917.13;;;11.62;100.00
7966;BME280;4028;43.272;26.932;2023-02-20T01:39:58;98931.34;;;11.61;100.00
7966;BME280;4028;43.272;26.932;2023-02-20T01:42:28;98919.66;;;11.71;100.00
7966;BME280;4028;43.272;26.932;2023-02-20T01:44:54;98913.84;;;11.68;100.00
7966;BME280;4028;43.272;26.932;2023-02-20T01:47:39;98914.13;;;11.57;100.00
7966;BME280;4028;43.272;26.932;2023-02-20T01:50:05;98926.38;;;11.58;100.00
7966;BME280;4028;43.272;26.932;2023-02-20T01:52:33;98917.06;;;11.54;100.00
7966;BME280;4028;43.272;26.932;2023-02-20T01:55:08;98913.78;;;11.60;100.00
7966;BME280;4028;43.272;26.932;2023-02-20T01:57:37;98923.19;;;11.54;100.00
7966;BME280;4028;43.272;26.932;2023-02-20T02:00:23;98934.09;;;11.51;100.00
7966;BME280;4028;43.272;26.932;2023-02-20T02:02:59;98920.09;;;11.41;100.00
7966;BME280;4028;43.272;26.932;2023-02-20T02:05:27;98945.13;;;11.64;100.00
7966;BME280;4028;43.272;26.932;2023-02-20T02:07:55;98941.16;;;11.42;100.00
7966;BME280;4028;43.272;26.932;2023-02-20T02:10:27;98934.50;;;11.38;100.00
7966;BME280;4028;43.272;26.932;2023-02-20T02:12:55;98949.25;;;11.41;100.00
7966;BME280;4028;43.272;26.932;2023-02-20T02:15:22;98956.91;;;11.44;100.00
7966;BME280;4028;43.272;26.932;2023-02-20T02:40:42;99032.06;;;11.25;100.00
7966;BME280;4028;43.272;26.932;2023-02-20T02:46:36;99050.31;;;11.28;100.00
7966;BME280;4028;43.272;26.932;2023-02-20T02:51:49;99022.84;;;11.11;100.00
7966;BME280;4028;43.272;26.932;2023-02-20T02:54:20;99063.53;;;11.28;100.00
7966;BME280;4028;43.272;26.932;2023-02-20T02:56:51;99049.63;;;11.26;100.00
7966;BME280;4028;43.272;26.932;2023-02-20T02:59:25;99059.25;;;11.27;100.00
7966;BME280;4028;43.272;26.932;2023-02-20T03:01:59;99072.16;;;11.30;100.00
7966;BME280;4028;43.272;26.932;2023-02-20T03:04:28;99076.41;;;11.23;100.00
7966;BME280;4028;43.272;26.932;2023-02-20T03:07:02;99076.25;;;11.07;100.00
7966;BME280;4028;43.272;26.932;2023-02-20T03:09:32;99072.84;;;11.14;100.00
7966;BME280;4028;43.272;26.932;2023-02-20T03:12:00;99075.03;;;11.19;100.00
7966;BME280;4028;43.272;26.932;2023-02-20T03:19:45;99080.09;;;11.12;100.00
7966;BME280;4028;43.272;26.932;2023-02-20T03:24:41;99081.19;;;10.92;100.00
7966;BME280;4028;43.272;26.932;2023-02-20T03:27:28;99092.03;;;10.99;100.00
7966;BME280;4028;43.272;26.932;2023-02-20T03:29:57;99067.84;;;10.84;100.00
7966;BME280;4028;43.272;26.932;2023-02-20T03:32:26;99102.38;;;10.92;100.00
7966;BME280;4028;43.272;26.932;2023-02-20T03:35:11;99094.09;;;10.77;100.00
7966;BME280;4028;43.272;26.932;2023-02-20T03:37:59;99118.88;;;10.76;100.00
7966;BME280;4028;43.272;26.932;2023-02-20T03:40:45;99113.50;;;10.58;100.00
7966;BME280;4028;43.272;26.932;2023-02-20T03:43:30;99115.88;;;10.61;100.00
7966;BME280;4028;43.272;26.932;2023-02-20T03:46:00;99109.84;;;10.69;100.00
7966;BME280;4028;43.272;26.932;2023-02-20T03:48:47;99111.66;;;10.68;100.00
7966;BME280;4028;43.272;26.932;2023-02-20T03:51:15;99110.84;;;10.58;100.00
7966;BME280;4028;43.272;26.932;2023-02-20T03:54:00;99103.63;;;10.60;100.00
7966;BME280;4028;43.272;26.932;2023-02-20T03:56:33;99114.81;;;10.45;100.00
7966;BME280;4028;43.272;26.932;2023-02-20T03:59:05;99119.72;;;10.39;100.00
7966;BME280;4028;43.272;26.932;2023-02-20T04:01:33;99118.31;;;10.35;100.00
7966;BME280;4028;43.272;26.932;2023-02-20T04:04:01;99112.44;;;10.41;100.00
7966;BME280;4028;43.272;26.932;2023-02-20T04:06:29;99103.53;;;10.43;100.00
7966;BME280;4028;43.272;26.932;2023-02-20T04:09:06;99102.44;;;10.35;100.00
7966;BME280;4028;43.272;26.932;2023-02-20T04:11:53;99103.69;;;10.22;100.00
7966;BME280;4028;43.272;26.932;2023-02-20T04:14:24;99121.22;;;10.23;100.00
7966;BME280;4028;43.272;26.932;2023-02-20T04:16:56;99127.66;;;10.20;100.00
7966;BME280;4028;43.272;26.932;2023-02-20T04:19:23;99125.44;;;10.25;100.00
7966;BME280;4028;43.272;26.932;2023-02-20T04:21:51;99139.22;;;10.29;100.00
7966;BME280;4028;43.272;26.932;2023-02-20T04:24:28;99123.47;;;10.18;100.00
7966;BME280;4028;43.272;26.932;2023-02-20T04:26:56;99121.22;;;10.13;100.00
7966;BME280;4028;43.272;26.932;2023-02-20T04:29:21;99134.06;;;10.27;100.00
7966;BME280;4028;43.272;26.932;2023-02-20T04:31:47;99148.94;;;10.28;100.00
7966;BME280;4028;43.272;26.932;2023-02-20T04:34:13;99160.88;;;10.23;100.00
7966;BME280;4028;43.272;26.932;2023-02-20T04:36:38;99146.31;;;10.09;100.00
7966;BME280;4028;43.272;26.932;2023-02-20T04:39:04;99153.38;;;10.18;100.00
7966;BME280;4028;43.272;26.932;2023-02-20T04:41:29;99154.91;;;10.21;100.00
7966;BME280;4028;43.272;26.932;2023-02-20T04:43:54;99169.66;;;10.23;100.00
7966;BME280;4028;43.272;26.932;2023-02-20T04:46:40;99168.81;;;10.13;100.00
7966;BME280;4028;43.272;26.932;2023-02-20T04:49:05;99171.19;;;10.16;100.00
7966;BME280;4028;43.272;26.932;2023-02-20T04:51:31;99187.34;;;10.13;100.00
7966;BME280;4028;43.272;26.932;2023-02-20T04:53:56;99166.19;;;10.13;100.00
7966;BME280;4028;43.272;26.932;2023-02-20T04:56:22;99176.25;;;10.29;100.00
7966;BME280;4028;43.272;26.932;2023-02-20T04:58:48;99178.97;;;10.18;100.00
7966;BME280;4028;43.272;26.932;2023-02-20T05:01:14;99191.69;;;10.24;100.00
7966;BME280;4028;43.272;26.932;2023-02-20T05:03:40;99191.94;;;10.21;100.00
7966;BME280;4028;43.272;26.932;2023-02-20T05:06:06;99199.63;;;10.24;100.00
7966;BME280;4028;43.272;26.932;2023-02-20T05:08:31;99213.81;;;10.32;100.00
7966;BME280;4028;43.272;26.932;2023-02-20T05:10:57;99214.06;;;10.20;100.00
7966;BME280;4028;43.272;26.932;2023-02-20T05:13:22;99233.69;;;10.17;100.00
7966;BME280;4028;43.272;26.932;2023-02-20T05:15:48;99236.88;;;10.11;100.00
7966;BME280;4028;43.272;26.932;2023-02-20T05:18:13;99235.34;;;10.18;100.00
7966;BME280;4028;43.272;26.932;2023-02-20T05:20:47;99250.09;;;10.11;100.00
7966;BME280;4028;43.272;26.932;2023-02-20T05:23:31;99261.09;;;10.16;100.00
7966;BME280;4028;43.272;26.932;2023-02-20T05:25:56;99265.81;;;10.12;100.00
7966;BME280;4028;43.272;26.932;2023-02-20T05:28:22;99270.69;;;10.07;100.00
7966;BME280;4028;43.272;26.932;2023-02-20T05:30:47;99274.16;;;10.08;100.00
7966;BME280;4028;43.272;26.932;2023-02-20T05:33:13;99295.88;;;10.02;100.00
7966;BME280;4028;43.272;26.932;2023-02-20T05:35:38;99310.53;;;9.66;100.00
7966;BME280;4028;43.272;26.932;2023-02-20T05:38:04;99312.06;;;9.07;100.00
7966;BME280;4028;43.272;26.932;2023-02-20T05:40:30;99320.31;;;8.72;100.00
7966;BME280;4028;43.272;26.932;2023-02-20T05:42:56;99329.66;;;8.32;100.00
7966;BME280;4028;43.272;26.932;2023-02-20T05:45:22;99337.16;;;8.16;100.00
7966;BME280;4028;43.272;26.932;2023-02-20T05:47:47;99342.91;;;8.10;100.00
7966;BME280;4028;43.272;26.932;2023-02-20T05:50:12;99345.31;;;8.02;100.00
7966;BME280;4028;43.272;26.932;2023-02-20T05:52:38;99358.38;;;7.92;100.00
7966;BME280;4028;43.272;26.932;2023-02-20T05:55:04;99380.06;;;7.85;100.00
7966;BME280;4028;43.272;26.932;2023-02-20T05:57:29;99382.94;;;7.70;100.00
7966;BME280;4028;43.272;26.932;2023-02-20T05:59:55;99381.63;;;7.76;100.00
7966;BME280;4028;43.272;26.932;2023-02-20T06:02:20;99395.16;;;7.60;100.00
7966;BME280;4028;43.272;26.932;2023-02-20T06:04:46;99407.13;;;7.64;100.00
7966;BME280;4028;43.272;26.932;2023-02-20T06:07:11;99413.84;;;7.68;100.00
7966;BME280;4028;43.272;26.932;2023-02-20T06:09:40;99420.78;;;7.69;100.00
7966;BME280;4028;43.272;26.932;2023-02-20T06:12:06;99421.75;;;7.68;100.00
7966;BME280;4028;43.272;26.932;2023-02-20T06:14:32;99446.78;;;7.63;100.00
7966;BME280;4028;43.272;26.932;2023-02-20T06:16:57;99460.03;;;7.61;100.00
7966;BME280;4028;43.272;26.932;2023-02-20T06:19:23;99475.63;;;7.87;100.00
7966;BME280;4028;43.272;26.932;2023-02-20T06:21:51;99470.34;;;7.75;100.00
7966;BME280;4028;43.272;26.932;2023-02-20T06:24:17;99483.41;;;7.77;100.00
7966;BME280;4028;43.272;26.932;2023-02-20T06:26:44;99489.50;;;7.77;100.00
7966;BME280;4028;43.272;26.932;2023-02-20T06:29:11;99480.41;;;7.59;100.00
7966;BME280;4028;43.272;26.932;2023-02-20T06:31:37;99488.50;;;7.56;100.00
7966;BME280;4028;43.272;26.932;2023-02-20T06:34:02;99496.16;;;7.48;100.00
7966;BME280;4028;43.272;26.932;2023-02-20T06:36:31;99494.34;;;7.37;100.00
7966;BME280;4028;43.272;26.932;2023-02-20T06:38:58;99495.63;;;7.32;100.00
7966;BME280;4028;43.272;26.932;2023-02-20T06:41:24;99499.88;;;7.21;100.00
7966;BME280;4028;43.272;26.932;2023-02-20T06:43:50;99514.47;;;7.14;100.00
7966;BME280;4028;43.272;26.932;2023-02-20T06:46:15;99521.75;;;7.11;100.00
7966;BME280;4028;43.272;26.932;2023-02-20T06:51:10;99530.53;;;6.98;100.00
7966;BME280;4028;43.272;26.932;2023-02-20T06:53:36;99528.63;;;6.76;100.00
7966;BME280;4028;43.272;26.932;2023-02-20T06:56:06;99516.66;;;6.72;100.00
7966;BME280;4028;43.272;26.932;2023-02-20T06:58:32;99536.13;;;6.94;100.00
7966;BME280;4028;43.272;26.932;2023-02-20T07:00:57;99532.00;;;7.02;100.00
7966;BME280;4028;43.272;26.932;2023-02-20T07:03:24;99547.81;;;6.90;100.00
7966;BME280;4028;43.272;26.932;2023-02-20T07:05:49;99553.44;;;7.09;100.00
7966;BME280;4028;43.272;26.932;2023-02-20T07:08:15;99557.47;;;7.02;100.00
7966;BME280;4028;43.272;26.932;2023-02-20T07:10:40;99563.47;;;7.04;100.00
7966;BME280;4028;43.272;26.932;2023-02-20T07:13:06;99567.69;;;6.94;100.00
7966;BME280;4028;43.272;26.932;2023-02-20T07:15:31;99556.78;;;7.11;100.00
7966;BME280;4028;43.272;26.932;2023-02-20T07:17:57;99565.38;;;7.02;100.00
7966;BME280;4028;43.272;26.932;2023-02-20T07:20:22;99566.47;;;7.11;100.00
7966;BME280;4028;43.272;26.932;2023-02-20T07:22:52;99570.91;;;7.10;100.00
7966;BME280;4028;43.272;26.932;2023-02-20T07:25:19;99557.19;;;7.18;100.00
7966;BME280;4028;43.272;26.932;2023-02-20T07:27:44;99571.03;;;7.33;100.00
7966;BME280;4028;43.272;26.932;2023-02-20T07:30:10;99587.88;;;7.30;100.00
7966;BME280;4028;43.272;26.932;2023-02-20T07:32:36;99575.56;;;7.30;100.00
7966;BME280;4028;43.272;26.932;2023-02-20T07:35:02;99606.09;;;7.33;100.00
7966;BME280;4028;43.272;26.932;2023-02-20T07:37:28;99592.44;;;7.28;100.00
7966;BME280;4028;43.272;26.932;2023-02-20T07:39:53;99588.09;;;7.03;100.00
7966;BME280;4028;43.272;26.932;2023-02-20T07:42:18;99615.81;;;7.20;100.00
7966;BME280;4028;43.272;26.932;2023-02-20T07:44:44;99612.50;;;7.05;100.00
7966;BME280;4028;43.272;26.932;2023-02-20T07:47:14;99611.31;;;7.22;100.00
7966;BME280;4028;43.272;26.932;2023-02-20T07:49:39;99617.44;;;7.10;100.00
7966;BME280;4028;43.272;26.932;2023-02-20T07:52:05;99607.88;;;7.09;100.00
7966;BME280;4028;43.272;26.932;2023-02-20T07:54:30;99606.31;;;6.93;100.00
7966;BME280;4028;43.272;26.932;2023-02-20T07:56:56;99613.06;;;6.97;100.00
7966;BME280;4028;43.272;26.932;2023-02-20T07:59:22;99617.88;;;7.03;100.00
7966;BME280;4028;43.272;26.932;2023-02-20T08:01:48;99586.78;;;6.85;100.00
7966;BME280;4028;43.272;26.932;2023-02-20T08:04:14;99619.38;;;6.95;100.00
7966;BME280;4028;43.272;26.932;2023-02-20T08:06:40;99612.63;;;7.03;100.00
7966;BME280;4028;43.272;26.932;2023-02-20T08:09:05;99619.34;;;7.08;100.00
7966;BME280;4028;43.272;26.932;2023-02-20T08:11:35;99621.13;;;7.07;100.00
7966;BME280;4028;43.272;26.932;2023-02-20T08:14:02;99625.44;;;7.08;100.00
7966;BME280;4028;43.272;26.932;2023-02-20T08:16:28;99613.25;;;7.07;100.00
7966;BME280;4028;43.272;26.932;2023-02-20T08:18:53;99622.06;;;7.06;100.00
7966;BME280;4028;43.272;26.932;2023-02-20T08:21:19;99622.16;;;7.17;100.00
7966;BME280;4028;43.272;26.932;2023-02-20T08:23:45;99570.97;;;6.85;100.00
7966;BME280;4028;43.272;26.932;2023-02-20T08:26:10;99623.09;;;7.16;100.00
7966;BME280;4028;43.272;26.932;2023-02-20T08:28:36;99625.06;;;7.25;100.00
7966;BME280;4028;43.272;26.932;2023-02-20T08:31:02;99616.06;;;7.17;100.00
7966;BME280;4028;43.272;26.932;2023-02-20T08:33:28;99634.81;;;7.36;100.00
7966;BME280;4028;43.272;26.932;2023-02-20T08:35:53;99637.38;;;7.25;100.00
7966;BME280;4028;43.272;26.932;2023-02-20T08:38:28;99609.03;;;7.04;100.00
7966;BME280;4028;43.272;26.932;2023-02-20T08:40:54;99633.28;;;7.21;100.00
7966;BME280;4028;43.272;26.932;2023-02-20T08:43:20;99643.47;;;7.25;100.00
7966;BME280;4028;43.272;26.932;2023-02-20T08:45:46;99652.13;;;7.27;100.00
7966;BME280;4028;43.272;26.932;2023-02-20T08:48:12;99658.69;;;7.09;100.00
7966;BME280;4028;43.272;26.932;2023-02-20T08:50:37;99659.34;;;7.13;100.00
7966;BME280;4028;43.272;26.932;2023-02-20T08:53:03;99665.09;;;7.18;100.00
7966;BME280;4028;43.272;26.932;2023-02-20T08:55:28;99668.91;;;7.14;100.00
7966;BME280;4028;43.272;26.932;2023-02-20T08:57:54;99681.94;;;7.28;100.00
7966;BME280;4028;43.272;26.932;2023-02-20T09:00:20;99685.41;;;7.28;100.00
7966;BME280;4028;43.272;26.932;2023-02-20T09:02:46;99696.03;;;7.27;100.00
7966;BME280;4028;43.272;26.932;2023-02-20T09:05:13;99687.53;;;7.11;100.00
7966;BME280;4028;43.272;26.932;2023-02-20T09:07:38;99696.69;;;7.05;100.00
7966;BME280;4028;43.272;26.932;2023-02-20T09:10:04;99698.25;;;7.20;100.00
7966;BME280;4028;43.272;26.932;2023-02-20T09:12:30;99704.97;;;7.37;100.00
7966;BME280;4028;43.272;26.932;2023-02-20T09:14:57;99698.44;;;7.30;100.00
7966;BME280;4028;43.272;26.932;2023-02-20T09:17:28;99697.56;;;7.42;100.00
7966;BME280;4028;43.272;26.932;2023-02-20T09:19:54;99681.28;;;7.37;100.00
7966;BME280;4028;43.272;26.932;2023-02-20T09:22:24;99706.41;;;7.41;100.00
7966;BME280;4028;43.272;26.932;2023-02-20T09:24:49;99714.81;;;7.46;100.00
7966;BME280;4028;43.272;26.932;2023-02-20T09:27:15;99715.13;;;7.54;100.00
7966;BME280;4028;43.272;26.932;2023-02-20T09:29:41;99721.69;;;7.36;100.00
7966;BME280;4028;43.272;26.932;2023-02-20T09:32:09;99725.22;;;7.24;100.00
7966;BME280;4028;43.272;26.932;2023-02-20T09:34:35;99729.59;;;7.36;100.00
7966;BME280;4028;43.272;26.932;2023-02-20T09:37:00;99728.03;;;7.34;100.00
7966;BME280;4028;43.272;26.932;2023-02-20T09:39:26;99736.78;;;7.34;100.00
7966;BME280;4028;43.272;26.932;2023-02-20T09:44:38;99738.09;;;7.03;100.00
7966;BME280;4028;43.272;26.932;2023-02-20T09:50:35;99724.38;;;7.11;100.00
7966;BME280;4028;43.272;26.932;2023-02-20T09:53:23;99718.72;;;7.04;100.00
7966;BME280;4028;43.272;26.932;2023-02-20T09:55:51;99718.78;;;7.28;100.00
7966;BME280;4028;43.272;26.932;2023-02-20T10:01:03;99721.59;;;7.38;100.00
7966;BME280;4028;43.272;26.932;2023-02-20T10:03:33;99727.41;;;7.30;100.00
7966;BME280;4028;43.272;26.932;2023-02-20T10:06:03;99728.56;;;7.26;100.00
7966;BME280;4028;43.272;26.932;2023-02-20T10:08:34;99726.28;;;7.09;100.00
7966;BME280;4028;43.272;26.932;2023-02-20T10:11:02;99707.47;;;7.02;100.00
7966;BME280;4028;43.272;26.932;2023-02-20T10:24:29;99702.47;;;7.47;100.00
7966;BME280;4028;43.272;26.932;2023-02-20T10:27:22;99703.16;;;7.38;100.00
7966;BME280;4028;43.272;26.932;2023-02-20T10:29:50;99695.53;;;7.46;100.00
7966;BME280;4028;43.272;26.932;2023-02-20T10:32:42;99696.03;;;7.64;100.00
7966;BME280;4028;43.272;26.932;2023-02-20T10:35:15;99701.31;;;7.51;100.00
7966;BME280;4028;43.272;26.932;2023-02-20T10:37:45;99694.75;;;7.33;100.00
7966;BME280;4028;43.272;26.932;2023-02-20T10:40:22;99709.28;;;7.62;100.00
7966;BME280;4028;43.272;26.932;2023-02-20T10:43:03;99709.78;;;7.43;100.00
7966;BME280;4028;43.272;26.932;2023-02-20T10:48:07;99708.66;;;7.35;100.00
7966;BME280;4028;43.272;26.932;2023-02-20T11:01:06;99699.91;;;8.06;97.44
7966;BME280;4028;43.272;26.932;2023-02-20T11:03:56;99707.16;;;8.26;95.94
7966;BME280;4028;43.272;26.932;2023-02-20T11:06:30;99712.28;;;8.17;93.29
7966;BME280;4028;43.272;26.932;2023-02-20T11:08:56;99713.63;;;8.22;94.22
7966;BME280;4028;43.272;26.932;2023-02-20T11:11:34;99711.72;;;8.24;91.83
7966;BME280;4028;43.272;26.932;2023-02-20T11:14:11;99707.34;;;8.12;89.22
7966;BME280;4028;43.272;26.932;2023-02-20T11:16:47;99714.06;;;8.05;90.53
7966;BME280;4028;43.272;26.932;2023-02-20T11:19:31;99711.94;;;7.86;92.76
7966;BME280;4028;43.272;26.932;2023-02-20T11:21:58;99717.88;;;8.01;93.06
7966;BME280;4028;43.272;26.932;2023-02-20T11:24:37;99711.00;;;8.22;89.59
7966;BME280;4028;43.272;26.932;2023-02-20T11:27:20;99711.00;;;8.33;88.04
7966;BME280;4028;43.272;26.932;2023-02-20T11:29:50;99706.19;;;8.51;86.33
7966;BME280;4028;43.272;26.932;2023-02-20T11:34:48;99703.56;;;8.85;81.40
7966;BME280;4028;43.272;26.932;2023-02-20T11:37:26;99703.22;;;8.67;82.98
7966;BME280;4028;43.272;26.932;2023-02-20T11:39:53;99691.13;;;8.76;84.02
7966;BME280;4028;43.272;26.932;2023-02-20T11:42:19;99712.00;;;9.01;81.57
7966;BME280;4028;43.272;26.932;2023-02-20T11:44:45;99709.34;;;9.13;81.01
7966;BME280;4028;43.272;26.932;2023-02-20T11:47:27;99701.19;;;9.16;79.76
7966;BME280;4028;43.272;26.932;2023-02-20T11:52:35;99684.28;;;9.61;76.08
7966;BME280;4028;43.272;26.932;2023-02-20T11:55:18;99697.53;;;9.50;73.63
7966;BME280;4028;43.272;26.932;2023-02-20T11:57:46;99697.78;;;9.36;75.73
7966;BME280;4028;43.272;26.932;2023-02-20T12:00:17;99704.91;;;9.13;75.95
7966;BME280;4028;43.272;26.932;2023-02-20T12:05:51;99708.50;;;8.78;79.73
7966;BME280;4028;43.272;26.932;2023-02-20T12:08:55;99712.09;;;8.77;80.75
7966;BME280;4028;43.272;26.932;2023-02-20T12:11:24;99697.94;;;8.78;80.63
7966;BME280;4028;43.272;26.932;2023-02-20T12:13:51;99675.66;;;8.82;79.30
7966;BME280;4028;43.272;26.932;2023-02-20T12:25:14;99697.94;;;8.78;80.23
7966;BME280;4028;43.272;26.932;2023-02-20T12:39:14;99667.50;;;8.97;75.07
7966;BME280;4028;43.272;26.932;2023-02-20T12:50:38;99682.00;;;10.21;68.94
7966;BME280;4028;43.272;26.932;2023-02-20T12:55:31;99682.72;;;10.23;67.50
7966;BME280;4028;43.272;26.932;2023-02-20T13:01:05;99672.38;;;10.83;65.90
7966;BME280;4028;43.272;26.932;2023-02-20T13:06:03;99654.78;;;11.72;58.29
7966;BME280;4028;43.272;26.932;2023-02-20T13:08:36;99653.91;;;11.71;57.51
7966;BME280;4028;43.272;26.932;2023-02-20T13:11:11;99612.19;;;11.74;56.23
7966;BME280;4028;43.272;26.932;2023-02-20T13:13:50;99643.34;;;12.01;55.50
7966;BME280;4028;43.272;26.932;2023-02-20T13:16:27;99639.81;;;12.29;54.77
7966;BME280;4028;43.272;26.932;2023-02-20T13:19:09;99636.28;;;12.38;54.29
7966;BME280;4028;43.272;26.932;2023-02-20T13:21:38;99641.22;;;12.23;54.21
7966;BME280;4028;43.272;26.932;2023-02-20T13:24:31;99643.00;;;12.33;53.36
7966;BME280;4028;43.272;26.932;2023-02-20T13:27:05;99641.78;;;12.08;53.21
7966;BME280;4028;43.272;26.932;2023-02-20T13:29:34;99635.34;;;11.71;53.91
7966;BME280;4028;43.272;26.932;2023-02-20T13:34:42;99642.94;;;11.07;58.02
7966;BME280;4028;43.272;26.932;2023-02-20T13:56:19;99628.66;;;10.16;63.51
7966;BME280;4028;43.272;26.932;2023-02-20T13:58:46;99634.34;;;10.11;62.96
7966;BME280;4028;43.272;26.932;2023-02-20T14:01:13;99629.78;;;10.13;64.07
7966;BME280;4028;43.272;26.932;2023-02-20T14:03:38;99629.44;;;10.07;64.96
7966;BME280;4028;43.272;26.932;2023-02-20T14:08:30;99635.47;;;9.77;66.74
7966;BME280;4028;43.272;26.932;2023-02-20T14:11:03;99621.97;;;9.59;66.68
7966;BME280;4028;43.272;26.932;2023-02-20T14:13:29;99638.25;;;9.75;66.33
7966;BME280;4028;43.272;26.932;2023-02-20T14:15:56;99641.06;;;9.62;67.65
7966;BME280;4028;43.272;26.932;2023-02-20T14:18:33;99645.00;;;9.68;67.95
7966;BME280;4028;43.272;26.932;2023-02-20T14:21:15;99649.94;;;9.61;68.03
7966;BME280;4028;43.272;26.932;2023-02-20T14:23:42;99653.41;;;9.62;68.39
7966;BME280;4028;43.272;26.932;2023-02-20T14:26:29;99655.34;;;9.60;68.66
7966;BME280;4028;43.272;26.932;2023-02-20T14:28:57;99648.44;;;9.80;67.18
7966;BME280;4028;43.272;26.932;2023-02-20T14:33:58;99636.63;;;9.63;68.28
7966;BME280;4028;43.272;26.932;2023-02-20T14:38:59;99606.31;;;9.35;69.22
7966;BME280;4028;43.272;26.932;2023-02-20T14:41:28;99633.06;;;9.53;69.77
7966;BME280;4028;43.272;26.932;2023-02-20T14:44:05;99643.31;;;9.67;71.03
7966;BME280;4028;43.272;26.932;2023-02-20T14:46:38;99644.41;;;9.64;69.72
7966;BME280;4028;43.272;26.932;2023-02-20T14:49:15;99647.19;;;9.52;70.70
7966;BME280;4028;43.272;26.932;2023-02-20T14:51:41;99640.75;;;9.45;72.04
7966;BME280;4028;43.272;26.932;2023-02-20T14:54:18;99636.16;;;9.47;71.88
7966;BME280;4028;43.272;26.932;2023-02-20T14:56:45;99620.72;;;9.42;71.55
7966;BME280;4028;43.272;26.932;2023-02-20T15:01:41;99618.94;;;9.31;72.25
7966;BME280;4028;43.272;26.932;2023-02-20T15:04:12;99621.97;;;9.27;72.31
7966;BME280;4028;43.272;26.932;2023-02-20T15:06:41;99616.81;;;9.14;73.06
7966;BME280;4028;43.272;26.932;2023-02-20T15:09:07;99617.09;;;9.11;73.94
7966;BME280;4028;43.272;26.932;2023-02-20T15:11:34;99615.38;;;9.10;74.61
7966;BME280;4028;43.272;26.932;2023-02-20T15:14:01;99608.09;;;9.02;76.29
7966;BME280;4028;43.272;26.932;2023-02-20T15:16:29;99601.53;;;8.85;77.22
7966;BME280;4028;43.272;26.932;2023-02-20T15:18:55;99610.63;;;8.81;80.20
7966;BME280;4028;43.272;26.932;2023-02-20T15:21:38;99615.06;;;8.81;80.23
7966;BME280;4028;43.272;26.932;2023-02-20T15:27:11;99628.13;;;8.82;81.50
7966;BME280;4028;43.272;26.932;2023-02-20T15:29:37;99627.78;;;8.76;83.71
7966;BME280;4028;43.272;26.932;2023-02-20T15:32:23;99628.16;;;8.71;86.79
7966;BME280;4028;43.272;26.932;2023-02-20T15:34:54;99610.97;;;8.54;89.07
7966;BME280;4028;43.272;26.932;2023-02-20T15:37:29;99628.16;;;8.71;90.01
7966;BME280;4028;43.272;26.932;2023-02-20T15:39:55;99620.00;;;8.52;92.90
7966;BME280;4028;43.272;26.932;2023-02-20T15:42:22;99615.69;;;8.40;94.36
7966;BME280;4028;43.272;26.932;2023-02-20T15:44:49;99631.25;;;8.43;95.23
7966;BME280;4028;43.272;26.932;2023-02-20T15:47:15;99633.88;;;8.43;95.76
7966;BME280;4028;43.272;26.932;2023-02-20T15:49:41;99640.13;;;8.42;95.62
7966;BME280;4028;43.272;26.932;2023-02-20T15:52:12;99633.72;;;8.33;96.62